Impacts METAR Board INFO
IDs:

KLAS - Las Vegas/McCarran I, NV, US

Updated at: 0530 UTC 13 Dec 2017
Potential Impact None Slight Moderate High
Time12/17Z 12/18Z 12/19Z 12/20Z 12/21Z 12/22Z 12/23Z 13/00Z 13/01Z 13/02Z 13/03Z 13/04Z 13/05Z
VIS10 10 10 10 10 10 10 10 10 10 10 10 10
CIG-- -- -- -- -- -- -- -- -- -- -- -- --
CoverFEWFEWFEWCLRCLRFEWFEWFEWFEWCLRCLRCLRCLR
FltCatVFRVFRVFRVFRVFRVFRVFRVFRVFRVFRVFRVFRVFR
WX--------------------------
WDir030000000220020024000
WSpd0 3 0 0 0 0 0 3 0 5 4 0 0
WGst-- -- -- -- -- -- -- -- -- -- -- -- --
Raw hourly METARs
KLAS 121656Z 00000KT 10SM FEW250 11/M18 A3039 RMK AO2 SLP290 T01061183
KLAS 121756Z 30003KT 10SM FEW250 14/M21 A3038 RMK AO2 SLP284 T01391206 10144 20039 50001
KLAS 121856Z 00000KT 10SM FEW250 16/M19 A3034 RMK AO2 SLP270 T01611189
KLAS 121956Z 00000KT 10SM CLR 17/M18 A3029 RMK AO2 SLP254 T01721178
KLAS 122056Z 00000KT 10SM CLR 19/M18 A3025 RMK AO2 SLP237 T01891178 58041
KLAS 122156Z 00000KT 10SM FEW250 19/M18 A3022 RMK AO2 SLP227 T01941178
KLAS 122256Z 00000KT 10SM FEW250 20/M17 A3020 RMK AO2 SLP221 T02001172
KLAS 122356Z 22003KT 10SM FEW250 19/M17 A3019 RMK AO2 SLP217 T01941172 10206 20144 56019
KLAS 130056Z 00000KT 10SM FEW250 17/M16 A3018 RMK AO2 SLP218 T01671161
KLAS 130156Z 20005KT 10SM CLR 14/M17 A3018 RMK AO2 SLP217 T01441167
KLAS 130256Z 24004KT 10SM CLR 14/M19 A3018 RMK AO2 SLP218 T01391189 55003
KLAS 130356Z 00000KT 10SM CLR 12/M18 A3018 RMK AO2 SLP218 T01171178
KLAS 130456Z 00000KT 10SM CLR 10/M17 A3018 RMK AO2 SLP216 T01001172